createdAt,value
2022-12-09T00:02:23.743Z,102.03
2022-12-09T00:04:50.917Z,104.28
2022-12-09T00:07:18.134Z,116.28
2022-12-09T00:09:45.422Z,125.93
2022-12-09T00:12:12.400Z,116.00
2022-12-09T00:14:39.308Z,114.25
2022-12-09T00:17:06.805Z,113.97
2022-12-09T00:19:35.282Z,119.72
2022-12-09T00:22:02.217Z,117.93
2022-12-09T00:24:29.223Z,118.78
2022-12-09T00:26:57.084Z,129.48
2022-12-09T00:29:24.085Z,161.73
2022-12-09T00:31:51.259Z,130.48
2022-12-09T00:34:18.472Z,124.10
2022-12-09T00:36:45.608Z,136.00
2022-12-09T00:39:13.232Z,139.02
2022-12-09T00:41:40.520Z,124.82
2022-12-09T00:44:07.901Z,133.38
2022-12-09T00:46:35.137Z,131.48
2022-12-09T00:49:03.803Z,115.78
2022-12-09T00:51:31.015Z,147.35
2022-12-09T00:53:58.194Z,128.05
2022-12-09T00:56:28.496Z,127.93
2022-12-09T00:58:57.076Z,121.78
2022-12-09T01:01:24.496Z,119.78
2022-12-09T01:03:51.744Z,120.18
2022-12-09T01:06:21.612Z,123.22
2022-12-09T01:08:49.287Z,146.52
2022-12-09T01:11:25.328Z,116.13
2022-12-09T01:13:53.192Z,125.13
2022-12-09T01:16:26.095Z,121.05
2022-12-09T01:18:54.789Z,120.68
2022-12-09T01:21:22.192Z,107.90
2022-12-09T01:23:49.445Z,95.35
2022-12-09T01:26:16.697Z,123.28
2022-12-09T01:28:44.049Z,99.85
2022-12-09T01:31:12.663Z,106.95
2022-12-09T01:33:40.936Z,99.00
2022-12-09T01:36:17.625Z,110.88
2022-12-09T01:38:45.877Z,111.97
2022-12-09T01:41:14.278Z,106.30
2022-12-09T01:43:41.493Z,115.45
2022-12-09T01:46:09.032Z,106.97
2022-12-09T01:48:43.483Z,119.65
2022-12-09T01:51:19.566Z,97.60
2022-12-09T01:53:50.093Z,85.28
2022-12-09T01:56:25.574Z,84.30
2022-12-09T01:58:54.321Z,76.80
2022-12-09T02:01:22.454Z,76.22
2022-12-09T02:03:49.894Z,73.45
2022-12-09T02:06:17.884Z,72.28
2022-12-09T02:08:46.661Z,92.13
2022-12-09T02:11:31.958Z,74.03
2022-12-09T02:14:05.657Z,72.35
2022-12-09T02:16:41.118Z,71.47
2022-12-09T02:19:49.435Z,65.25
2022-12-09T02:22:23.561Z,69.90
2022-12-09T02:24:59.391Z,64.68
2022-12-09T02:27:37.827Z,65.68
2022-12-09T02:30:21.429Z,66.15
2022-12-09T02:33:08.740Z,64.10
2022-12-09T02:35:53.736Z,53.70
2022-12-09T02:38:25.920Z,56.30
2022-12-09T02:41:12.634Z,64.20
2022-12-09T02:43:49.917Z,67.03
2022-12-09T02:46:20.311Z,65.25
2022-12-09T02:48:55.360Z,68.07
2022-12-09T02:51:24.623Z,56.42
2022-12-09T02:53:59.736Z,81.22
2022-12-09T02:56:28.004Z,73.70
2022-12-09T02:58:55.271Z,68.32
2022-12-09T03:01:36.823Z,61.70
2022-12-09T03:04:04.932Z,63.53
2022-12-09T03:06:42.177Z,68.85
2022-12-09T03:09:27.701Z,70.88
2022-12-09T03:11:59.520Z,58.67
2022-12-09T03:14:34.106Z,71.78
2022-12-09T03:17:08.788Z,61.22
2022-12-09T03:19:42.553Z,80.50
2022-12-09T03:22:14.798Z,54.80
2022-12-09T03:25:06.398Z,62.80
2022-12-09T03:27:44.351Z,54.60
2022-12-09T03:30:12.258Z,57.28
2022-12-09T03:32:42.083Z,58.13
2022-12-09T03:35:18.896Z,56.80
2022-12-09T03:37:48.423Z,59.30
2022-12-09T03:40:20.235Z,62.85
2022-12-09T03:42:53.217Z,56.55
2022-12-09T03:45:20.981Z,50.55
2022-12-09T03:47:48.248Z,48.28
2022-12-09T03:50:15.752Z,51.78
2022-12-09T03:52:49.106Z,52.05
2022-12-09T03:55:26.432Z,65.18
2022-12-09T03:57:57.452Z,58.42
2022-12-09T04:00:24.512Z,70.53
2022-12-09T04:02:51.820Z,61.92
2022-12-09T04:05:19.161Z,58.88
2022-12-09T04:07:46.390Z,55.70
2022-12-09T04:10:13.925Z,64.43
2022-12-09T04:12:40.982Z,58.70
2022-12-09T04:15:10.314Z,57.67
2022-12-09T04:17:37.824Z,51.13
2022-12-09T04:20:06.894Z,48.10
2022-12-09T04:22:34.756Z,51.08
2022-12-09T04:25:01.777Z,77.28
2022-12-09T04:27:28.797Z,60.15
2022-12-09T04:29:55.775Z,65.18
2022-12-09T04:32:23.249Z,50.05
2022-12-09T04:34:50.270Z,54.15
2022-12-09T04:37:17.372Z,52.25
2022-12-09T04:39:44.317Z,52.72
2022-12-09T04:42:11.584Z,59.45
2022-12-09T04:44:38.639Z,54.15
2022-12-09T04:47:05.897Z,52.88
2022-12-09T04:49:33.027Z,49.78
2022-12-09T04:52:00.176Z,50.72
2022-12-09T04:54:27.239Z,50.70
2022-12-09T04:56:54.238Z,56.80
2022-12-09T04:59:21.172Z,56.08
2022-12-09T05:01:48.400Z,50.08
2022-12-09T05:04:16.289Z,48.03
2022-12-09T05:06:43.552Z,49.83
2022-12-09T05:09:12.829Z,56.53
2022-12-09T05:11:41.029Z,50.35
2022-12-09T05:14:08.432Z,52.38
2022-12-09T05:16:35.802Z,59.00
2022-12-09T05:19:03.201Z,61.08
2022-12-09T05:21:30.772Z,60.92
2022-12-09T05:23:58.237Z,61.92
2022-12-09T05:26:25.777Z,60.53
2022-12-09T05:28:53.112Z,69.43
2022-12-09T05:31:22.278Z,65.63
2022-12-09T05:33:51.353Z,58.78
2022-12-09T05:36:24.788Z,55.72
2022-12-09T05:38:52.776Z,57.10
2022-12-09T05:41:21.118Z,46.30
2022-12-09T05:43:48.453Z,56.70
2022-12-09T05:46:16.750Z,53.22
2022-12-09T05:48:44.583Z,48.47
2022-12-09T05:51:19.953Z,48.60
2022-12-09T05:53:47.025Z,43.03
2022-12-09T05:56:18.705Z,44.10
2022-12-09T05:58:46.873Z,46.80
2022-12-09T06:01:14.876Z,42.35
2022-12-09T06:03:42.202Z,48.72
2022-12-09T06:06:14.758Z,46.08
2022-12-09T06:08:43.680Z,57.63
2022-12-09T06:11:22.018Z,54.28
2022-12-09T06:13:50.665Z,53.60
2022-12-09T06:16:20.365Z,51.25
2022-12-09T06:18:48.888Z,51.15
2022-12-09T06:21:18.355Z,56.50
2022-12-09T06:23:45.660Z,62.65
2022-12-09T06:26:21.509Z,52.90
2022-12-09T06:28:49.537Z,51.50
2022-12-09T06:31:17.347Z,50.92
2022-12-09T06:33:54.852Z,58.95
2022-12-09T06:36:23.497Z,62.20
2022-12-09T06:38:50.883Z,72.93
2022-12-09T06:41:17.961Z,73.95
2022-12-09T06:43:45.457Z,71.45
2022-12-09T06:46:17.930Z,71.78
2022-12-09T06:48:45.548Z,69.50
2022-12-09T06:51:13.032Z,84.07
2022-12-09T06:53:40.309Z,81.18
2022-12-09T06:56:12.095Z,74.80
2022-12-09T06:58:42.178Z,66.53
2022-12-09T07:01:18.272Z,78.45
2022-12-09T07:03:48.212Z,76.90
2022-12-09T07:06:34.042Z,69.70
2022-12-09T07:09:05.528Z,72.80
2022-12-09T07:11:33.034Z,81.90
2022-12-09T07:14:01.352Z,72.30
2022-12-09T07:16:29.295Z,69.65
2022-12-09T07:18:57.395Z,68.20
2022-12-09T07:21:25.088Z,71.70
2022-12-09T07:23:53.293Z,63.22
2022-12-09T07:26:20.742Z,82.90
2022-12-09T07:28:50.193Z,76.10
2022-12-09T07:31:22.776Z,76.90
2022-12-09T07:33:51.694Z,81.28
2022-12-09T07:36:21.424Z,77.38
2022-12-09T07:38:50.246Z,87.68
2022-12-09T07:41:20.294Z,75.47
2022-12-09T07:43:48.221Z,79.07
2022-12-09T07:46:17.304Z,76.95
2022-12-09T07:48:45.073Z,87.55
2022-12-09T07:51:12.645Z,81.35
2022-12-09T07:53:39.902Z,89.43
2022-12-09T07:56:11.987Z,81.95
2022-12-09T07:58:39.735Z,82.85
2022-12-09T08:01:12.744Z,75.70
2022-12-09T08:03:40.457Z,77.53
2022-12-09T08:06:07.886Z,76.05
2022-12-09T08:08:35.786Z,85.60
2022-12-09T08:11:16.324Z,83.68
2022-12-09T08:13:44.415Z,80.95
2022-12-09T08:16:14.413Z,77.95
2022-12-09T08:18:43.073Z,74.20
2022-12-09T08:21:14.693Z,74.10
2022-12-09T08:23:42.046Z,82.72
2022-12-09T08:26:11.152Z,81.38
2022-12-09T08:28:38.742Z,74.85
2022-12-09T08:31:11.782Z,82.65
2022-12-09T08:33:40.631Z,69.75
2022-12-09T08:36:19.881Z,78.38
2022-12-09T08:38:47.464Z,79.43
2022-12-09T08:41:22.200Z,76.78
2022-12-09T08:43:49.973Z,73.10
2022-12-09T08:46:17.130Z,68.03
2022-12-09T08:48:44.775Z,75.65
2022-12-09T08:51:12.707Z,74.38
2022-12-09T08:53:40.688Z,75.65
2022-12-09T08:56:12.892Z,70.10
2022-12-09T08:58:41.098Z,85.88
2022-12-09T09:01:15.147Z,81.32
2022-12-09T09:03:43.731Z,78.60
2022-12-09T09:06:11.650Z,73.55
2022-12-09T09:08:40.327Z,73.35
2022-12-09T09:11:20.615Z,81.45
2022-12-09T09:13:51.771Z,75.15
2022-12-09T09:16:21.860Z,74.35
2022-12-09T09:18:49.895Z,76.55
2022-12-09T09:21:19.654Z,73.40
2022-12-09T09:23:47.454Z,75.60
2022-12-09T09:26:17.318Z,89.45
2022-12-09T09:28:45.226Z,94.80
2022-12-09T09:31:15.311Z,112.43
2022-12-09T09:33:42.801Z,127.32
2022-12-09T09:36:19.447Z,126.90
2022-12-09T09:38:47.788Z,119.78
2022-12-09T09:41:27.222Z,122.68
2022-12-09T09:43:56.344Z,113.75
2022-12-09T09:46:38.121Z,123.47
2022-12-09T09:49:11.230Z,124.07
2022-12-09T09:54:09.026Z,118.25
2022-12-09T09:56:43.849Z,113.63
2022-12-09T09:59:54.993Z,107.10
2022-12-09T10:02:49.324Z,108.15
2022-12-09T10:05:24.080Z,104.55
2022-12-09T10:07:59.217Z,102.47
2022-12-09T10:10:42.418Z,99.43
2022-12-09T10:13:38.664Z,91.50
2022-12-09T10:16:21.987Z,105.05
2022-12-09T10:21:42.175Z,92.75
2022-12-09T10:24:27.677Z,85.80
2022-12-09T10:27:14.635Z,87.82
2022-12-09T10:30:00.926Z,95.95
2022-12-09T10:32:33.720Z,95.38
2022-12-09T10:35:02.434Z,94.15
2022-12-09T10:37:35.355Z,85.25
2022-12-09T10:40:08.456Z,86.75
2022-12-09T10:43:08.049Z,92.43
2022-12-09T10:46:15.811Z,89.28
2022-12-09T10:48:37.866Z,94.22
2022-12-09T10:51:12.188Z,87.00
2022-12-09T10:53:55.330Z,80.03
2022-12-09T10:56:36.698Z,83.10
2022-12-09T10:59:25.674Z,90.47
2022-12-09T11:02:20.290Z,99.75
2022-12-09T11:04:54.710Z,103.32
2022-12-09T11:07:27.891Z,96.97
2022-12-09T11:12:33.455Z,92.95
2022-12-09T11:15:32.420Z,92.72
2022-12-09T11:18:08.965Z,101.85
2022-12-09T11:20:36.889Z,96.15
2022-12-09T11:23:14.334Z,88.85
2022-12-09T11:25:55.045Z,102.07
2022-12-09T11:28:27.718Z,94.32
2022-12-09T11:31:28.922Z,94.07
2022-12-09T11:34:00.333Z,93.03
2022-12-09T11:36:43.959Z,91.70
2022-12-09T11:39:33.057Z,101.45
2022-12-09T11:42:27.339Z,100.57
2022-12-09T11:44:54.243Z,95.25
2022-12-09T11:47:36.529Z,101.38
2022-12-09T11:50:21.160Z,110.07
2022-12-09T11:53:10.916Z,103.60
2022-12-09T11:55:55.515Z,113.53
2022-12-09T11:58:26.500Z,115.50
2022-12-09T12:01:08.302Z,117.32
2022-12-09T12:03:41.323Z,112.80
2022-12-09T12:09:43.306Z,105.55
2022-12-09T12:12:15.180Z,109.35
2022-12-09T12:14:43.569Z,116.68
2022-12-09T12:17:26.129Z,126.05
2022-12-09T12:19:56.408Z,124.90
2022-12-09T12:22:54.630Z,122.38
2022-12-09T12:25:32.692Z,128.63
2022-12-09T12:28:11.576Z,118.80
2022-12-09T12:30:47.447Z,113.57
2022-12-09T12:34:23.148Z,114.88
2022-12-09T12:36:44.168Z,119.30
2022-12-09T12:43:17.540Z,115.07
2022-12-09T12:46:08.875Z,117.13
2022-12-09T12:49:05.243Z,123.88
2022-12-09T12:51:59.572Z,114.93
2022-12-09T12:54:41.356Z,114.88
2022-12-09T12:57:22.343Z,119.68
2022-12-09T12:59:56.679Z,131.40
2022-12-09T13:02:31.300Z,134.15
2022-12-09T13:05:03.890Z,119.55
2022-12-09T13:07:36.973Z,116.25
2022-12-09T13:12:54.458Z,105.68
2022-12-09T13:15:36.270Z,98.88
2022-12-09T13:18:29.179Z,89.72
2022-12-09T13:20:58.483Z,104.85
2022-12-09T13:23:37.296Z,98.93
2022-12-09T13:26:23.491Z,93.50
2022-12-09T13:29:05.543Z,88.75
2022-12-09T13:31:35.096Z,93.15
2022-12-09T13:34:17.177Z,104.28
2022-12-09T13:36:46.801Z,107.40
2022-12-09T13:39:39.550Z,105.68
2022-12-09T13:42:46.622Z,113.57
2022-12-09T13:45:20.128Z,117.10
2022-12-09T13:47:47.679Z,127.93
2022-12-09T13:50:34.422Z,133.18
2022-12-09T13:53:07.481Z,138.13
2022-12-09T13:58:35.026Z,146.00
2022-12-09T14:01:11.499Z,147.73
2022-12-09T14:04:01.411Z,142.35
2022-12-09T14:06:31.779Z,123.85
2022-12-09T14:09:06.809Z,138.48
2022-12-09T14:11:42.678Z,130.73
2022-12-09T14:14:23.532Z,126.15
2022-12-09T14:17:17.099Z,143.27
2022-12-09T14:22:18.750Z,132.05
2022-12-09T14:24:50.843Z,141.05
2022-12-09T14:27:21.945Z,140.63
2022-12-09T14:30:23.966Z,135.98
2022-12-09T14:32:50.844Z,138.23
2022-12-09T14:35:25.924Z,138.75
2022-12-09T14:37:55.928Z,126.55
2022-12-09T14:40:36.329Z,138.57
2022-12-09T14:43:19.873Z,138.98
2022-12-09T14:45:57.845Z,143.27
2022-12-09T14:48:28.352Z,134.45
2022-12-09T14:51:21.494Z,130.88
2022-12-09T14:53:57.760Z,118.63
2022-12-09T14:56:28.733Z,115.10
2022-12-09T14:59:07.683Z,118.03
2022-12-09T15:01:53.395Z,122.32
2022-12-09T15:04:31.429Z,123.65
2022-12-09T15:07:15.155Z,134.00
2022-12-09T15:10:01.515Z,126.65
2022-12-09T15:12:54.975Z,133.77
2022-12-09T15:15:25.811Z,129.70
2022-12-09T15:18:01.955Z,134.40
2022-12-09T15:21:01.638Z,148.50
2022-12-09T15:23:38.216Z,149.23
2022-12-09T15:26:17.714Z,165.00
2022-12-09T15:28:48.431Z,144.23
2022-12-09T15:31:24.271Z,142.75
2022-12-09T15:33:54.164Z,139.15
2022-12-09T15:36:38.391Z,140.10
2022-12-09T15:39:08.900Z,143.80
2022-12-09T15:42:00.844Z,136.52
2022-12-09T15:44:32.589Z,119.45
2022-12-09T15:47:05.568Z,125.40
2022-12-09T15:49:42.426Z,132.32
2022-12-09T15:52:10.732Z,116.18
2022-12-09T15:54:40.867Z,141.90
2022-12-09T15:57:11.201Z,135.57
2022-12-09T15:59:55.684Z,130.23
2022-12-09T16:02:31.987Z,132.75
2022-12-09T16:05:05.450Z,135.38
2022-12-09T16:07:35.326Z,137.85
2022-12-09T16:10:13.684Z,136.07
2022-12-09T16:12:42.345Z,133.25
2022-12-09T16:15:13.904Z,135.07
2022-12-09T16:17:55.360Z,137.68
2022-12-09T16:20:29.941Z,126.03
2022-12-09T16:22:57.586Z,138.20
2022-12-09T16:25:27.103Z,124.50
2022-12-09T16:28:04.140Z,118.95
2022-12-09T16:30:33.562Z,117.65
2022-12-09T16:33:03.028Z,133.32
2022-12-09T16:35:43.037Z,117.53
2022-12-09T16:38:09.947Z,127.72
2022-12-09T16:41:02.007Z,124.18
2022-12-09T16:43:30.546Z,125.70
2022-12-09T16:46:20.417Z,122.35
2022-12-09T16:48:49.430Z,122.70
2022-12-09T16:51:21.665Z,120.78
2022-12-09T16:53:51.090Z,120.47
2022-12-09T16:56:26.986Z,123.47
2022-12-09T16:58:54.902Z,128.50
2022-12-09T17:01:25.668Z,137.65
2022-12-09T17:03:53.942Z,121.97
2022-12-09T17:06:21.131Z,124.70
2022-12-09T17:08:48.302Z,146.02
2022-12-09T17:11:16.981Z,135.05
2022-12-09T17:13:44.077Z,143.50
2022-12-09T17:16:11.336Z,135.60
2022-12-09T17:18:39.516Z,142.35
2022-12-09T17:21:10.144Z,133.23
2022-12-09T17:23:40.230Z,136.15
2022-12-09T17:26:09.928Z,132.80
2022-12-09T17:28:37.815Z,128.32
2022-12-09T17:31:13.770Z,132.98
2022-12-09T17:33:41.227Z,121.28
2022-12-09T17:36:08.550Z,132.07
2022-12-09T17:38:35.704Z,140.23
2022-12-09T17:41:07.582Z,152.55
2022-12-09T17:43:35.424Z,147.98
2022-12-09T17:46:04.071Z,168.60
2022-12-09T17:48:31.915Z,144.57
2022-12-09T17:50:59.273Z,140.93
2022-12-09T17:53:26.250Z,146.15
2022-12-09T17:55:53.231Z,130.60
2022-12-09T17:58:20.125Z,132.23
2022-12-09T18:00:47.952Z,139.48
2022-12-09T18:03:27.505Z,129.77
2022-12-09T18:06:02.144Z,145.68
2022-12-09T18:08:30.162Z,125.05
2022-12-09T18:10:57.233Z,124.13
2022-12-09T18:13:24.245Z,120.82
2022-12-09T18:15:54.422Z,128.40
2022-12-09T18:18:21.860Z,117.05
2022-12-09T18:20:49.132Z,120.97
2022-12-09T18:23:16.453Z,128.48
2022-12-09T18:25:43.676Z,121.03
2022-12-09T18:28:10.650Z,126.20
2022-12-09T18:30:39.679Z,137.55
2022-12-09T18:33:07.086Z,128.98
2022-12-09T18:35:48.087Z,127.57
2022-12-09T18:38:17.675Z,128.40
2022-12-09T18:41:03.294Z,122.93
2022-12-09T18:43:33.448Z,126.70
2022-12-09T18:46:07.230Z,119.43
2022-12-09T18:48:34.640Z,110.40
2022-12-09T18:51:01.825Z,121.40
2022-12-09T18:53:29.149Z,110.35
2022-12-09T18:55:56.364Z,100.82
2022-12-09T18:58:36.862Z,103.22
2022-12-09T19:01:31.028Z,110.05
2022-12-09T19:04:01.550Z,96.35
2022-12-09T19:06:34.076Z,104.07
2022-12-09T19:09:09.949Z,103.10
2022-12-09T19:11:39.514Z,97.45
2022-12-09T19:14:08.414Z,100.22
2022-12-09T19:16:35.910Z,104.57
2022-12-09T19:19:09.177Z,99.55
2022-12-09T19:21:37.677Z,112.80
2022-12-09T19:24:06.261Z,94.10
2022-12-09T19:26:35.033Z,113.50
2022-12-09T19:29:05.618Z,109.25
2022-12-09T19:31:52.352Z,108.60
2022-12-09T19:34:27.882Z,110.93
2022-12-09T19:36:57.712Z,112.95
2022-12-09T19:39:28.655Z,117.78
2022-12-09T19:41:56.197Z,123.88
2022-12-09T19:44:52.447Z,115.93
2022-12-09T19:47:11.167Z,119.97
2022-12-09T19:49:41.233Z,117.00
2022-12-09T19:52:08.228Z,114.57
2022-12-09T19:54:35.138Z,120.13
2022-12-09T19:57:02.203Z,94.15
2022-12-09T19:59:29.436Z,88.03
2022-12-09T20:01:56.597Z,88.05
2022-12-09T20:07:12.609Z,89.80
2022-12-09T20:09:39.937Z,67.47
2022-12-09T20:12:06.976Z,36.67
2022-12-09T20:14:34.006Z,29.15
2022-12-09T20:17:00.994Z,20.17
2022-12-09T20:19:28.150Z,14.20
2022-12-09T20:21:55.201Z,12.90
2022-12-09T20:24:22.389Z,19.63
2022-12-09T20:26:49.498Z,12.40
2022-12-09T20:29:16.386Z,13.25
2022-12-09T20:31:43.520Z,12.68
2022-12-09T20:34:19.173Z,10.02
2022-12-09T20:36:46.293Z,10.05
2022-12-09T20:39:16.577Z,11.10
2022-12-09T20:41:44.527Z,10.73
2022-12-09T20:44:12.894Z,12.82
2022-12-09T20:46:40.956Z,10.23
2022-12-09T20:49:08.214Z,10.35
2022-12-09T20:51:38.416Z,11.88
2022-12-09T20:54:07.434Z,10.98
2022-12-09T20:56:35.519Z,9.25
2022-12-09T20:59:02.933Z,11.32
2022-12-09T21:01:32.515Z,12.38
2022-12-09T21:04:01.551Z,8.60
2022-12-09T21:06:34.431Z,10.90
2022-12-09T21:11:29.228Z,10.98
2022-12-09T21:14:01.689Z,11.80
2022-12-09T21:16:31.138Z,7.28
2022-12-09T21:19:02.011Z,8.18
2022-12-09T21:21:34.869Z,8.23
2022-12-09T21:24:02.197Z,9.07
2022-12-09T21:26:29.565Z,9.68
2022-12-09T21:28:58.302Z,7.30
2022-12-09T21:31:28.323Z,5.32
2022-12-09T21:33:57.454Z,8.82
2022-12-09T21:36:29.437Z,4.63
2022-12-09T21:38:56.523Z,5.82
2022-12-09T21:41:26.129Z,7.85
2022-12-09T21:43:55.182Z,6.03
2022-12-09T21:46:33.727Z,6.53
2022-12-09T21:49:04.291Z,8.27
2022-12-09T21:51:32.623Z,6.90
2022-12-09T21:53:59.788Z,9.77
2022-12-09T21:56:32.944Z,6.47
2022-12-09T21:59:00.833Z,5.45
2022-12-09T22:01:34.153Z,9.25
2022-12-09T22:04:04.126Z,5.72
2022-12-09T22:06:31.466Z,9.55
2022-12-09T22:08:59.977Z,11.43
2022-12-09T22:11:29.863Z,4.10
2022-12-09T22:13:58.870Z,3.70
2022-12-09T22:16:30.147Z,5.13
2022-12-09T22:18:58.650Z,3.03
2022-12-09T22:21:28.964Z,4.78
2022-12-09T22:23:59.579Z,5.90
2022-12-09T22:26:26.971Z,5.15
2022-12-09T22:28:54.121Z,3.28
2022-12-09T22:31:32.924Z,5.15
2022-12-09T22:34:03.611Z,4.43
2022-12-09T22:36:30.698Z,9.30
2022-12-09T22:38:57.688Z,6.75
2022-12-09T22:41:27.690Z,3.10
2022-12-09T22:43:55.698Z,6.55
2022-12-09T22:46:28.452Z,3.75
2022-12-09T22:51:29.063Z,6.07
2022-12-09T22:56:24.474Z,5.30
2022-12-09T22:58:51.822Z,3.50
2022-12-09T23:01:24.560Z,4.13
2022-12-09T23:06:18.662Z,4.13
2022-12-09T23:08:46.134Z,6.90
2022-12-09T23:11:16.020Z,3.85
2022-12-09T23:13:43.462Z,2.95
2022-12-09T23:16:16.146Z,5.22
2022-12-09T23:21:24.772Z,2.85
2022-12-09T23:23:56.839Z,4.82
2022-12-09T23:26:28.607Z,2.95
2022-12-09T23:28:57.797Z,6.73
2022-12-09T23:31:31.701Z,2.25
2022-12-09T23:33:59.216Z,5.55
2022-12-09T23:36:32.162Z,3.22
2022-12-09T23:39:00.329Z,5.57
2022-12-09T23:41:28.372Z,3.33
2022-12-09T23:43:55.811Z,4.43
2022-12-09T23:46:26.335Z,4.72
2022-12-09T23:48:55.216Z,2.78
2022-12-09T23:51:30.622Z,8.85
2022-12-09T23:54:01.938Z,11.25
2022-12-09T23:56:31.370Z,12.90
2022-12-09T23:59:01.123Z,11.25
